createdAt,value
2022-08-20T00:02:17.836Z,7.47
2022-08-20T00:07:19.306Z,7.60
2022-08-20T00:12:20.847Z,7.32
2022-08-20T00:17:22.298Z,9.77
2022-08-20T00:22:23.839Z,9.48
2022-08-20T00:27:25.319Z,9.32
2022-08-20T00:32:26.826Z,8.93
2022-08-20T00:37:28.232Z,9.30
2022-08-20T00:42:29.641Z,7.97
2022-08-20T00:47:31.077Z,9.77
2022-08-20T00:52:33.390Z,10.25
2022-08-20T00:57:59.732Z,10.70
2022-08-20T01:03:04.892Z,10.55
2022-08-20T01:08:09.257Z,11.32
2022-08-20T01:13:18.209Z,11.80
2022-08-20T01:18:25.941Z,9.23
2022-08-20T01:23:27.307Z,9.93
2022-08-20T01:28:38.141Z,9.18
2022-08-20T01:33:40.249Z,8.88
2022-08-20T01:38:54.178Z,8.48
2022-08-20T01:43:58.337Z,7.50
2022-08-20T01:49:12.423Z,9.00
2022-08-20T01:54:15.604Z,8.05
2022-08-20T01:59:17.703Z,9.45
2022-08-20T02:04:20.027Z,6.60
2022-08-20T02:09:21.720Z,8.07
2022-08-20T02:14:24.221Z,7.28
2022-08-20T02:19:37.619Z,9.13
2022-08-20T02:24:39.102Z,6.93
2022-08-20T02:29:40.543Z,9.70
2022-08-20T02:34:42.144Z,8.93
2022-08-20T02:39:44.360Z,7.43
2022-08-20T02:44:45.789Z,9.55
2022-08-20T02:49:47.257Z,8.15
2022-08-20T02:54:48.687Z,7.90
2022-08-20T02:59:51.113Z,9.93
2022-08-20T03:04:52.481Z,7.25
2022-08-20T03:09:53.897Z,8.10
2022-08-20T03:14:55.476Z,8.68
2022-08-20T03:19:57.044Z,9.40
2022-08-20T03:24:58.435Z,9.05
2022-08-20T03:29:59.973Z,9.50
2022-08-20T03:35:01.830Z,10.65
2022-08-20T03:40:12.631Z,8.55
2022-08-20T03:45:17.237Z,9.82
2022-08-20T03:50:25.596Z,8.77
2022-08-20T03:55:29.588Z,8.65
2022-08-20T04:00:34.942Z,8.65
2022-08-20T04:05:37.875Z,8.75
2022-08-20T04:10:39.654Z,8.68
2022-08-20T04:15:41.450Z,9.38
2022-08-20T04:20:43.409Z,7.90
2022-08-20T04:25:45.727Z,10.35
2022-08-20T04:30:51.754Z,11.98
2022-08-20T04:35:54.594Z,11.88
2022-08-20T04:40:56.097Z,11.85
2022-08-20T04:46:00.463Z,9.30
2022-08-20T04:51:01.862Z,10.80
2022-08-20T04:56:05.675Z,12.63
2022-08-20T05:01:11.819Z,9.75
2022-08-20T05:06:13.610Z,11.93
2022-08-20T05:11:34.080Z,14.85
2022-08-20T05:16:38.787Z,16.58
2022-08-20T05:21:40.865Z,13.95
2022-08-20T05:26:42.325Z,16.00
2022-08-20T05:31:43.745Z,19.00
2022-08-20T05:36:49.742Z,20.23
2022-08-20T05:41:51.213Z,22.08
2022-08-20T05:46:52.757Z,25.58
2022-08-20T05:51:54.174Z,24.95
2022-08-20T05:56:55.913Z,26.23
2022-08-20T06:01:57.298Z,28.02
2022-08-20T06:07:06.690Z,28.65
2022-08-20T06:12:08.286Z,32.40
2022-08-20T06:17:13.503Z,25.83
2022-08-20T06:22:20.516Z,22.80
2022-08-20T06:27:23.295Z,21.92
2022-08-20T06:32:31.917Z,25.98
2022-08-20T06:37:35.564Z,22.45
2022-08-20T06:42:37.823Z,21.27
2022-08-20T06:47:41.590Z,24.15
2022-08-20T06:53:03.278Z,21.05
2022-08-20T06:58:07.471Z,22.17
2022-08-20T07:03:28.132Z,22.05
2022-08-20T07:08:31.553Z,22.75
2022-08-20T07:13:33.156Z,20.70
2022-08-20T07:18:34.677Z,19.27
2022-08-20T07:23:36.107Z,16.92
2022-08-20T07:28:38.713Z,17.17
2022-08-20T07:33:40.523Z,16.92
2022-08-20T07:38:42.672Z,16.02
2022-08-20T07:43:46.011Z,16.77
2022-08-20T07:48:49.768Z,15.07
2022-08-20T07:53:51.904Z,13.95
2022-08-20T07:58:55.124Z,12.73
2022-08-20T08:03:57.211Z,11.73
2022-08-20T08:09:11.465Z,11.82
2022-08-20T08:14:13.329Z,11.85
2022-08-20T08:19:18.226Z,17.88
2022-08-20T08:24:21.776Z,23.42
2022-08-20T08:29:24.860Z,20.65
2022-08-20T08:34:26.420Z,20.20
2022-08-20T08:39:34.591Z,19.23
2022-08-20T08:44:41.511Z,25.57
2022-08-20T08:49:54.737Z,25.35
2022-08-20T08:54:59.068Z,21.05
2022-08-20T09:00:05.469Z,29.17
2022-08-20T09:05:19.056Z,25.50
2022-08-20T09:10:23.039Z,23.27
2022-08-20T09:15:24.921Z,23.60
2022-08-20T09:20:27.320Z,27.65
2022-08-20T09:25:28.846Z,24.05
2022-08-20T09:30:30.452Z,22.73
2022-08-20T09:35:31.912Z,24.38
2022-08-20T09:40:34.360Z,19.55
2022-08-20T09:45:36.593Z,20.92
2022-08-20T09:50:43.706Z,20.48
2022-08-20T09:55:49.582Z,19.05
2022-08-20T10:00:51.711Z,25.95
2022-08-20T10:05:53.237Z,23.85
2022-08-20T10:10:54.678Z,20.15
2022-08-20T10:15:57.009Z,20.48
2022-08-20T10:20:58.526Z,24.20
2022-08-20T10:26:00.000Z,17.10
2022-08-20T10:31:01.753Z,18.75
2022-08-20T10:36:14.996Z,20.15
2022-08-20T10:41:16.503Z,20.42
2022-08-20T10:46:18.113Z,19.77
2022-08-20T10:51:19.633Z,18.65
2022-08-20T10:56:27.536Z,14.63
2022-08-20T11:01:33.941Z,15.55
2022-08-20T11:06:36.779Z,15.10
2022-08-20T11:11:38.439Z,14.50
2022-08-20T11:16:40.483Z,16.15
2022-08-20T11:21:41.915Z,16.55
2022-08-20T11:26:44.311Z,15.23
2022-08-20T11:31:46.339Z,13.95
2022-08-20T11:36:48.821Z,14.30
2022-08-20T11:41:55.242Z,14.30
2022-08-20T11:47:00.640Z,15.50
2022-08-20T11:52:02.497Z,18.17
2022-08-20T11:57:04.358Z,19.42
2022-08-20T12:02:10.257Z,19.70
2022-08-20T12:07:16.878Z,15.68
2022-08-20T12:12:19.870Z,16.88
2022-08-20T12:17:25.050Z,19.77
2022-08-20T12:22:26.651Z,15.75
2022-08-20T12:27:31.035Z,13.63
2022-08-20T12:32:33.227Z,15.65
2022-08-20T12:37:35.998Z,12.80
2022-08-20T12:42:37.792Z,12.80
2022-08-20T12:47:41.865Z,13.95
2022-08-20T12:52:46.816Z,12.18
2022-08-20T12:57:54.398Z,14.27
2022-08-20T13:02:58.166Z,19.00
2022-08-20T13:08:00.718Z,11.55
2022-08-20T13:13:03.262Z,13.60
2022-08-20T13:18:06.235Z,12.80
2022-08-20T13:23:07.697Z,13.50
2022-08-20T13:28:09.203Z,12.48
2022-08-20T13:33:10.796Z,11.20
2022-08-20T13:38:13.351Z,12.32
2022-08-20T13:43:14.825Z,14.27
2022-08-20T13:48:16.599Z,11.57
2022-08-20T13:53:18.261Z,11.68
2022-08-20T13:58:20.588Z,12.35
2022-08-20T14:03:25.218Z,10.65
2022-08-20T14:08:27.399Z,11.93
2022-08-20T14:13:28.835Z,15.15
2022-08-20T14:18:30.344Z,11.75
2022-08-20T14:23:31.761Z,13.02
2022-08-20T14:28:38.314Z,12.07
2022-08-20T14:33:44.026Z,14.13
2022-08-20T14:38:46.163Z,10.48
2022-08-20T14:43:47.584Z,10.75
2022-08-20T14:48:53.235Z,10.55
2022-08-20T14:53:54.953Z,7.85
2022-08-20T14:58:56.408Z,9.13
2022-08-20T15:03:57.900Z,8.02
2022-08-20T15:08:59.378Z,9.07
2022-08-20T15:14:00.858Z,7.63
2022-08-20T15:19:03.264Z,7.00
2022-08-20T15:24:04.869Z,7.45
2022-08-20T15:29:23.377Z,8.95
2022-08-20T15:34:25.012Z,8.45
2022-08-20T15:39:27.744Z,8.15
2022-08-20T15:44:29.161Z,8.60
2022-08-20T15:49:30.655Z,7.90
2022-08-20T15:54:32.260Z,12.10
2022-08-20T15:59:54.662Z,11.95
2022-08-20T16:05:19.252Z,9.50
2022-08-20T16:10:32.353Z,7.88
2022-08-20T16:15:40.167Z,10.77
2022-08-20T16:20:53.761Z,11.55
2022-08-20T16:26:16.345Z,8.88
2022-08-20T16:31:23.437Z,7.68
2022-08-20T16:36:33.144Z,8.70
2022-08-20T16:41:45.802Z,13.17
2022-08-20T16:46:53.683Z,8.80
2022-08-20T16:51:55.179Z,10.32
2022-08-20T16:57:04.175Z,11.55
2022-08-20T17:02:10.403Z,9.30
2022-08-20T17:07:12.328Z,8.75
2022-08-20T17:12:23.746Z,10.52
2022-08-20T17:17:34.158Z,8.48
2022-08-20T17:22:42.461Z,9.88
2022-08-20T17:27:45.036Z,8.10
2022-08-20T17:32:57.523Z,9.18
2022-08-20T17:38:01.327Z,9.07
2022-08-20T17:43:06.481Z,11.68
2022-08-20T17:48:14.029Z,11.02
2022-08-20T17:53:31.556Z,8.88
2022-08-20T17:58:52.561Z,10.82
2022-08-20T18:03:57.593Z,10.98
2022-08-20T18:09:12.300Z,11.27
2022-08-20T18:14:45.621Z,12.23
2022-08-20T18:20:12.877Z,13.75
2022-08-20T18:25:22.738Z,10.40
2022-08-20T18:30:25.405Z,15.70
2022-08-20T18:35:45.469Z,9.65
2022-08-20T18:40:50.049Z,9.65
2022-08-20T18:45:54.567Z,10.55
2022-08-20T18:50:57.517Z,15.55
2022-08-20T18:56:11.983Z,13.90
2022-08-20T19:01:14.741Z,15.85
2022-08-20T19:06:30.794Z,13.15
2022-08-20T19:11:49.575Z,17.70
2022-08-20T19:17:08.066Z,16.70
2022-08-20T19:22:12.910Z,15.90
2022-08-20T19:27:14.407Z,13.20
2022-08-20T19:32:27.923Z,12.18
2022-08-20T19:37:40.085Z,13.40
2022-08-20T19:42:52.934Z,10.52
2022-08-20T19:48:13.247Z,9.45
2022-08-20T19:53:33.090Z,12.88
2022-08-20T19:58:35.391Z,14.30
2022-08-20T20:03:37.895Z,14.02
2022-08-20T20:08:45.261Z,15.18
2022-08-20T20:13:46.965Z,13.70
2022-08-20T20:19:03.808Z,13.23
2022-08-20T20:24:19.693Z,11.55
2022-08-20T20:29:41.633Z,15.30
2022-08-20T20:34:55.286Z,14.50
2022-08-20T20:40:08.224Z,13.15
2022-08-20T20:45:20.644Z,11.90
2022-08-20T20:50:31.718Z,16.05
2022-08-20T20:55:37.305Z,18.77
2022-08-20T21:00:38.712Z,15.55
2022-08-20T21:05:40.642Z,12.95
2022-08-20T21:10:42.936Z,12.70
2022-08-20T21:15:44.350Z,10.55
2022-08-20T21:20:45.819Z,12.65
2022-08-20T21:25:47.261Z,9.32
2022-08-20T21:30:48.669Z,12.15
2022-08-20T21:35:59.816Z,13.70
2022-08-20T21:41:01.309Z,12.88
2022-08-20T21:46:04.067Z,12.73
2022-08-20T21:51:06.879Z,20.17
2022-08-20T21:56:09.769Z,13.93
2022-08-20T22:01:12.603Z,14.25
2022-08-20T22:06:14.384Z,18.00
2022-08-20T22:11:16.397Z,14.23
2022-08-20T22:16:20.147Z,14.07
2022-08-20T22:21:26.569Z,16.27
2022-08-20T22:26:28.854Z,13.63
2022-08-20T22:31:37.074Z,18.17
2022-08-20T22:36:39.529Z,14.70
2022-08-20T22:41:41.012Z,15.70
2022-08-20T22:46:48.061Z,16.08
2022-08-20T22:51:51.076Z,15.00
2022-08-20T22:56:54.992Z,14.35
2022-08-20T23:01:56.801Z,16.20
2022-08-20T23:06:59.058Z,19.60
2022-08-20T23:12:00.488Z,14.80
2022-08-20T23:17:11.333Z,14.23
2022-08-20T23:22:14.999Z,15.20
2022-08-20T23:27:19.857Z,15.07
2022-08-20T23:32:21.424Z,15.88
2022-08-20T23:37:23.134Z,17.08
2022-08-20T23:42:24.691Z,15.30
2022-08-20T23:47:26.625Z,17.00
2022-08-20T23:52:28.282Z,18.60
2022-08-20T23:57:30.002Z,15.82
